Time;durP1;ratioP1;P1;durP2;ratioP2;P2;SDS_P1;SDS_P2;PMS_P1;PMS_P2;Temp;Humidity;BMP_temperature;BMP_pressure;BME280_temperature;BME280_humidity;BME280_pressure;Samples;Min_cycle;Max_cycle;Signal;HPM_P1;HPM_P2
2021/06/28 00:00:22;;;;;;;;;9.00;5.50;;;;;21.47;65.48;100900.81;5055093;28;46276;-72
2021/06/28 00:02:47;;;;;;;;;9.00;6.25;;;;;21.42;66.15;100911.75;5054587;28;45593;-73
2021/06/28 00:05:15;;;;;;;;;9.75;7.75;;;;;21.35;65.78;100908.56;5054881;28;45639;-73
2021/06/28 00:07:42;;;;;;;;;5.50;5.50;;;;;21.32;66.36;100913.25;5054423;28;45445;-72
2021/06/28 00:10:08;;;;;;;;;5.75;5.75;;;;;21.27;66.72;100910.03;5054366;28;46120;-72
2021/06/28 00:12:34;;;;;;;;;7.50;7.50;;;;;21.23;66.33;100906.69;5055067;28;45461;-72
2021/06/28 00:15:00;;;;;;;;;8.00;7.25;;;;;21.19;66.99;100900.72;5054837;28;45406;-73
2021/06/28 00:17:26;;;;;;;;;8.00;8.00;;;;;21.17;66.65;100913.25;5054678;28;45473;-73
2021/06/28 00:19:52;;;;;;;;;9.00;8.00;;;;;21.18;67.00;100912.28;5054372;28;46024;-73
2021/06/28 00:22:18;;;;;;;;;8.00;8.00;;;;;21.19;67.12;100903.38;5054545;28;45659;-72
2021/06/28 00:24:43;;;;;;;;;7.00;7.00;;;;;21.19;67.12;100895.38;5054870;28;45584;-73
2021/06/28 00:27:08;;;;;;;;;11.75;10.50;;;;;21.19;67.16;100890.06;5055067;28;45402;-73
2021/06/28 00:29:34;;;;;;;;;7.50;7.50;;;;;21.19;67.36;100897.19;5053370;28;46304;-73
2021/06/28 00:31:59;;;;;;;;;6.00;6.00;;;;;21.16;66.90;100886.72;5054565;28;45489;-72
2021/06/28 00:34:25;;;;;;;;;6.50;6.50;;;;;21.14;67.05;100881.50;5054737;28;45363;-73
2021/06/28 00:36:50;;;;;;;;;6.00;6.00;;;;;21.12;67.31;100875.44;5054887;28;45566;-72
2021/06/28 00:39:16;;;;;;;;;5.25;5.25;;;;;21.11;66.86;100871.03;5055189;28;45372;-73
2021/06/28 00:41:41;;;;;;;;;6.50;6.00;;;;;21.10;66.38;100864.00;5054260;28;45511;-73
2021/06/28 00:44:06;;;;;;;;;4.75;4.00;;;;;21.08;66.56;100857.06;5054160;28;45327;-72
2021/06/28 00:46:32;;;;;;;;;4.50;4.50;;;;;21.04;66.39;100851.06;5054074;28;45399;-72
2021/06/28 00:48:57;;;;;;;;;2.50;2.50;;;;;21.02;66.36;100839.66;5054082;28;47030;-72
2021/06/28 00:51:23;;;;;;;;;2.25;2.25;;;;;20.99;66.30;100826.56;5053585;28;45380;-72
2021/06/28 00:53:50;;;;;;;;;2.00;2.00;;;;;21.00;65.65;100831.78;5054049;28;45298;-72
2021/06/28 00:56:16;;;;;;;;;3.00;3.00;;;;;21.02;65.16;100829.00;5054005;28;45608;-72
2021/06/28 00:58:43;;;;;;;;;2.33;2.33;;;;;21.03;64.76;100837.88;5053558;28;45264;-72
2021/06/28 01:01:10;;;;;;;;;2.33;2.33;;;;;21.01;65.29;100837.97;5054294;28;45445;-72
2021/06/28 01:03:36;;;;;;;;;3.33;2.33;;;;;21.02;64.98;100834.34;5054428;28;45409;-72
2021/06/28 01:06:01;;;;;;;;;2.00;2.00;;;;;21.05;65.06;100834.16;5054672;28;45485;-73
2021/06/28 01:08:27;;;;;;;;;4.00;3.00;;;;;21.05;64.77;100831.50;5053875;28;46251;-72
2021/06/28 01:10:53;;;;;;;;;2.00;2.00;;;;;21.07;64.73;100826.06;5053809;28;45406;-73
2021/06/28 01:13:19;;;;;;;;;2.33;2.33;;;;;21.08;64.96;100815.34;5054076;28;45495;-72
2021/06/28 01:15:44;;;;;;;;;3.00;3.00;;;;;21.11;64.85;100812.47;5054194;28;45538;-72
2021/06/28 01:18:10;;;;;;;;;3.33;3.33;;;;;21.12;65.01;100811.53;5054422;28;45366;-72
2021/06/28 01:20:36;;;;;;;;;2.00;2.00;;;;;21.09;64.68;100800.22;5052254;28;45421;-72
2021/06/28 01:23:11;;;;;;;;;4.00;3.00;;;;;21.09;64.72;100786.91;5053912;28;47710;-72
2021/06/28 01:25:36;;;;;;;;;3.00;3.00;;;;;21.11;64.81;100777.03;5053998;28;45514;-72
2021/06/28 01:28:02;;;;;;;;;2.00;2.00;;;;;21.13;64.44;100775.97;5052129;28;47168;-72
2021/06/28 01:30:29;;;;;;;;;3.00;2.00;;;;;21.13;64.67;100789.28;5054269;28;45587;-72
2021/06/28 01:32:56;;;;;;;;;5.00;2.00;;;;;21.12;64.57;100811.53;5053840;28;45707;-73
2021/06/28 01:35:22;;;;;;;;;3.33;2.00;;;;;21.10;64.27;100833.88;5053874;28;45502;-72
2021/06/28 01:37:47;;;;;;;;;2.00;2.00;;;;;21.03;64.13;100827.22;5053539;28;46165;-72
2021/06/28 01:40:15;;;;;;;;;3.00;3.00;;;;;20.98;64.58;100830.19;5053965;28;45465;-72
2021/06/28 01:42:42;;;;;;;;;3.67;3.33;;;;;20.93;64.93;100835.78;5056694;28;45307;-73
2021/06/28 01:45:11;;;;;;;;;3.00;3.00;;;;;20.93;65.95;100833.13;5057578;28;45380;-73
2021/06/28 01:47:37;;;;;;;;;7.75;7.50;;;;;20.91;66.06;100839.50;5056499;28;46185;-72
2021/06/28 01:50:06;;;;;;;;;20.50;18.75;;;;;20.92;65.88;100838.53;5056514;28;45466;-72
2021/06/28 01:52:31;;;;;;;;;27.25;24.00;;;;;20.97;65.79;100849.75;5056720;28;45498;-72
2021/06/28 01:54:56;;;;;;;;;29.25;29.25;;;;;21.00;66.25;100847.75;5056278;28;45430;-71
2021/06/28 01:57:22;;;;;;;;;28.75;27.75;;;;;21.05;66.43;100851.94;5056973;28;46176;-72
2021/06/28 01:59:47;;;;;;;;;24.75;20.00;;;;;21.07;66.17;100834.06;5056429;28;45637;-72
2021/06/28 02:02:12;;;;;;;;;15.50;12.75;;;;;21.10;66.41;100823.22;5056586;28;45232;-72
2021/06/28 02:04:38;;;;;;;;;9.50;9.50;;;;;21.11;66.17;100835.59;5056612;28;45437;-72
2021/06/28 02:07:07;;;;;;;;;3.00;3.00;;;;;21.10;64.76;100852.50;5056741;28;45466;-72
2021/06/28 02:09:33;;;;;;;;;4.50;3.50;;;;;21.07;64.25;100836.72;5056370;28;45409;-72
2021/06/28 02:11:58;;;;;;;;;2.33;2.33;;;;;21.05;64.28;100842.16;5057019;28;45339;-72
2021/06/28 02:14:24;;;;;;;;;2.00;0.00;;;;;21.02;63.81;100860.09;5055315;28;45555;-72
2021/06/28 02:16:50;;;;;;;;;1.67;1.67;;;;;20.94;63.98;100852.59;5056588;28;45496;-72
2021/06/28 02:19:17;;;;;;;;;1.00;1.00;;;;;20.86;64.47;100850.41;5056947;28;45497;-72
2021/06/28 02:21:44;;;;;;;;;2.00;2.00;;;;;20.80;64.36;100837.47;5056370;28;48192;-72
2021/06/28 02:24:10;;;;;;;;;1.00;1.00;;;;;20.81;64.43;100825.91;5056760;28;45613;-73
2021/06/28 02:26:36;;;;;;;;;2.00;2.00;;;;;20.83;64.42;100809.81;5056193;28;47471;-73
2021/06/28 02:29:02;;;;;;;;;1.00;1.00;;;;;20.83;64.42;100810.69;5056426;28;45485;-73
2021/06/28 02:31:28;;;;;;;;;3.00;3.00;;;;;20.85;64.22;100821.22;5056496;28;45415;-72
2021/06/28 02:33:54;;;;;;;;;4.00;3.67;;;;;20.88;63.78;100813.06;5056314;28;47658;-72
2021/06/28 02:36:22;;;;;;;;;1.00;1.00;;;;;20.89;64.41;100809.47;5056769;28;45348;-72
2021/06/28 02:38:48;;;;;;;;;1.00;1.00;;;;;20.85;63.92;100818.56;5055801;28;45296;-72
2021/06/28 02:41:14;;;;;;;;;1.67;1.67;;;;;20.86;63.91;100825.63;5055980;28;45514;-72
2021/06/28 02:43:40;;;;;;;;;2.00;2.00;;;;;20.83;63.72;100837.28;5056073;28;45365;-73
2021/06/28 02:46:07;;;;;;;;;1.00;1.00;;;;;20.81;63.98;100835.66;5056120;28;45993;-72
2021/06/28 02:48:33;;;;;;;;;1.00;1.00;;;;;20.76;63.85;100834.16;5056210;28;45435;-72
2021/06/28 02:50:58;;;;;;;;;2.00;2.00;;;;;20.75;63.88;100845.75;5055719;28;45425;-72
2021/06/28 02:53:24;;;;;;;;;1.00;1.00;;;;;20.72;64.25;100863.72;5054061;28;45511;-72
2021/06/28 02:55:50;;;;;;;;;1.00;1.00;;;;;20.66;63.89;100870.22;5055735;28;46244;-72
2021/06/28 02:58:17;;;;;;;;;2.67;2.00;;;;;20.61;63.98;100874.97;5055932;28;45398;-72
2021/06/28 03:00:43;;;;;;;;;1.00;1.00;;;;;20.56;64.10;100885.91;5055911;28;45563;-72
2021/06/28 03:03:09;;;;;;;;;3.00;1.33;;;;;20.53;64.20;100887.88;5056056;28;45411;-72
2021/06/28 03:05:35;;;;;;;;;2.00;2.00;;;;;20.44;64.52;100873.31;5055535;28;46434;-72
2021/06/28 03:08:05;;;;;;;;;1.00;1.00;;;;;20.37;64.99;100858.66;5055112;28;45436;-72
2021/06/28 03:10:31;;;;;;;;;1.00;1.00;;;;;20.33;65.03;100857.13;5055209;28;45461;-72
2021/06/28 03:12:57;;;;;;;;;2.67;2.00;;;;;20.29;64.88;100848.47;5055607;28;45220;-72
2021/06/28 03:15:22;;;;;;;;;1.00;1.00;;;;;20.27;65.05;100854.84;5056230;28;45250;-72
2021/06/28 03:17:48;;;;;;;;;2.00;0.33;;;;;20.25;65.70;100852.25;5055155;28;45445;-72
2021/06/28 03:20:15;;;;;;;;;2.00;2.00;;;;;20.23;64.93;100850.63;5055310;28;45450;-72
2021/06/28 03:22:42;;;;;;;;;1.00;1.00;;;;;20.18;65.51;100840.28;5055202;28;45540;-72
2021/06/28 03:25:10;;;;;;;;;0.00;0.00;;;;;20.16;65.32;100844.81;5055062;28;46166;-72
2021/06/28 03:27:35;;;;;;;;;1.00;1.00;;;;;20.11;65.30;100834.47;5055228;28;45478;-72
2021/06/28 03:30:03;;;;;;;;;1.00;1.00;;;;;20.10;65.44;100827.44;5055673;28;45433;-71
2021/06/28 03:32:28;;;;;;;;;1.00;1.00;;;;;20.09;65.59;100811.59;5054111;28;45563;-72
2021/06/28 03:34:53;;;;;;;;;1.50;1.50;;;;;20.10;65.28;100800.03;5054700;28;45390;-71
2021/06/28 03:37:19;;;;;;;;;1.50;1.50;;;;;20.11;65.88;100812.34;5054811;28;45585;-72
2021/06/28 03:39:45;;;;;;;;;1.00;1.00;;;;;20.12;65.28;100828.22;5055259;28;45354;-72
2021/06/28 03:42:10;;;;;;;;;2.00;2.00;;;;;20.11;65.59;100817.66;5055191;28;45538;-71
2021/06/28 03:44:35;;;;;;;;;1.00;1.00;;;;;20.09;65.36;100817.78;5054449;28;46997;-71
2021/06/28 03:47:01;;;;;;;;;1.00;1.00;;;;;20.08;65.39;100825.81;5054438;28;45358;-71
2021/06/28 03:49:26;;;;;;;;;3.33;1.00;;;;;20.04;65.45;100829.59;5049102;28;45432;-71
2021/06/28 03:51:52;;;;;;;;;1.00;1.00;;;;;20.00;66.05;100822.75;5053970;28;45296;-72
2021/06/28 03:54:17;;;;;;;;;1.00;1.00;;;;;19.98;66.43;100819.34;5055109;28;46068;-72
2021/06/28 03:56:43;;;;;;;;;2.00;2.00;;;;;19.96;66.79;100811.44;5054473;28;45319;-71
2021/06/28 03:59:08;;;;;;;;;3.00;3.00;;;;;19.98;66.51;100812.22;5054665;28;45369;-72
2021/06/28 04:01:34;;;;;;;;;4.00;2.00;;;;;20.01;66.00;100825.31;5054616;28;45457;-71
2021/06/28 04:04:00;;;;;;;;;2.00;2.00;;;;;20.04;66.36;100835.75;5053815;28;46077;-72
2021/06/28 04:06:25;;;;;;;;;2.00;2.00;;;;;20.05;65.97;100818.03;5055207;28;45285;-72
2021/06/28 04:08:50;;;;;;;;;3.25;3.25;;;;;20.06;66.21;100830.38;5054109;28;45490;-72
2021/06/28 04:11:18;;;;;;;;;2.00;2.00;;;;;20.05;66.03;100823.34;5053596;28;45168;-72
2021/06/28 04:13:44;;;;;;;;;19.25;18.00;;;;;20.06;65.94;100822.41;5053305;28;47182;-72
2021/06/28 04:16:10;;;;;;;;;2.00;2.00;;;;;20.06;65.33;100822.41;5053551;28;45431;-73
2021/06/28 04:18:35;;;;;;;;;2.25;2.25;;;;;20.07;65.45;100830.28;5054029;28;45384;-73
2021/06/28 04:21:00;;;;;;;;;4.75;2.00;;;;;20.07;65.80;100829.41;5054030;28;45476;-72
2021/06/28 04:23:26;;;;;;;;;3.25;3.25;;;;;20.05;65.94;100818.03;5053539;28;45576;-72
2021/06/28 04:25:51;;;;;;;;;2.75;2.75;;;;;20.04;65.30;100829.59;5053674;28;45585;-72
2021/06/28 04:28:17;;;;;;;;;2.00;2.00;;;;;20.01;65.64;100820.00;5054074;28;45477;-72
2021/06/28 04:30:42;;;;;;;;;1.00;1.00;;;;;20.03;65.66;100812.81;5053356;28;45389;-72
2021/06/28 04:33:08;;;;;;;;;2.00;2.00;;;;;20.00;65.84;100836.03;5053789;28;46020;-71
2021/06/28 04:35:33;;;;;;;;;2.00;2.00;;;;;19.99;65.59;100829.00;5053388;28;45485;-72
2021/06/28 04:37:59;;;;;;;;;1.33;1.33;;;;;19.98;65.81;100830.81;5053721;28;45500;-71
2021/06/28 04:40:27;;;;;;;;;1.00;1.00;;;;;19.92;65.62;100847.09;5053434;28;45424;-72
2021/06/28 04:42:53;;;;;;;;;2.50;2.50;;;;;19.86;65.87;100844.81;5053491;28;45576;-72
2021/06/28 04:45:20;;;;;;;;;3.25;3.25;;;;;19.84;65.63;100846.69;5053998;28;45441;-71
2021/06/28 04:47:47;;;;;;;;;2.00;2.00;;;;;19.84;65.61;100854.66;5048880;28;45482;-71
2021/06/28 04:50:14;;;;;;;;;2.00;2.00;;;;;19.87;65.50;100858.00;5049323;28;45404;-71
2021/06/28 04:52:40;;;;;;;;;2.00;2.00;;;;;19.89;65.86;100869.41;5046978;28;45410;-71
2021/06/28 04:55:08;;;;;;;;;1.75;1.75;;;;;19.90;65.21;100867.59;5049532;28;45458;-72
2021/06/28 04:57:34;;;;;;;;;2.00;2.00;;;;;19.86;65.13;100866.91;5044547;28;45288;-73
2021/06/28 05:00:00;;;;;;;;;1.00;1.00;;;;;19.88;65.53;100869.50;5045378;28;45559;-73
2021/06/28 05:02:25;;;;;;;;;1.75;1.75;;;;;19.89;65.44;100868.53;5045143;28;45803;-74
2021/06/28 05:04:51;;;;;;;;;0.00;0.00;;;;;19.87;65.89;100870.44;5044981;28;45509;-75
2021/06/28 05:07:17;;;;;;;;;1.25;1.25;;;;;19.86;65.43;100882.88;5049863;28;45460;-73
2021/06/28 05:09:44;;;;;;;;;2.00;2.00;;;;;19.86;65.41;100874.88;5044668;28;45540;-74
2021/06/28 05:12:11;;;;;;;;;3.50;3.50;;;;;19.93;65.76;100873.59;5052193;28;45576;-74
2021/06/28 05:14:36;;;;;;;;;3.00;1.00;;;;;19.95;65.58;100886.81;5048680;28;45498;-73
2021/06/28 05:17:02;;;;;;;;;3.00;2.50;;;;;19.93;65.13;100881.56;5051863;28;45310;-72
2021/06/28 05:19:27;;;;;;;;;3.50;2.50;;;;;19.96;65.19;100885.84;5054879;28;45382;-71
2021/06/28 05:21:53;;;;;;;;;1.00;1.00;;;;;19.94;65.66;100893.03;5054407;28;46432;-71
2021/06/28 05:24:18;;;;;;;;;3.00;3.00;;;;;19.90;65.61;100884.41;5054096;28;45510;-72
2021/06/28 05:26:43;;;;;;;;;3.75;3.75;;;;;19.91;65.39;100886.13;5054706;28;45416;-72
2021/06/28 05:29:09;;;;;;;;;2.00;2.00;;;;;19.89;64.93;100881.84;5054857;28;45397;-72
2021/06/28 05:31:34;;;;;;;;;2.00;2.00;;;;;19.87;65.40;100878.41;5053142;28;46146;-70
2021/06/28 05:33:59;;;;;;;;;5.25;3.50;;;;;19.91;65.17;100885.25;5053756;28;45307;-72
2021/06/28 05:36:25;;;;;;;;;5.25;4.25;;;;;19.96;65.37;100888.50;5055397;28;45307;-71
2021/06/28 05:38:50;;;;;;;;;4.75;4.00;;;;;19.97;65.36;100892.88;5070040;28;45362;-70
2021/06/28 05:41:16;;;;;;;;;4.00;3.75;;;;;19.99;65.50;100895.44;5054946;28;46755;-70
2021/06/28 05:43:42;;;;;;;;;3.00;3.00;;;;;19.98;65.15;100894.59;5054770;28;45517;-70
2021/06/28 05:46:08;;;;;;;;;2.25;2.00;;;;;19.96;65.11;100877.03;5055085;28;45580;-69
2021/06/28 05:48:33;;;;;;;;;2.75;2.75;;;;;19.98;65.49;100868.03;5054480;28;45480;-69
2021/06/28 05:50:59;;;;;;;;;2.00;2.00;;;;;19.99;65.58;100869.72;5053440;28;46157;-69
2021/06/28 05:53:25;;;;;;;;;5.75;4.25;;;;;19.99;65.24;100848.47;5053976;28;45447;-67
2021/06/28 05:55:50;;;;;;;;;12.50;9.50;;;;;20.03;65.19;100859.78;5053803;28;45418;-67
2021/06/28 05:58:17;;;;;;;;;4.00;3.00;;;;;20.06;65.25;100871.09;5054160;28;45452;-69
2021/06/28 06:00:42;;;;;;;;;5.25;3.00;;;;;20.02;64.62;100868.69;5048300;28;46370;-68
2021/06/28 06:03:08;;;;;;;;;1.25;1.25;;;;;19.97;64.80;100849.50;5048551;28;45155;-70
2021/06/28 06:05:33;;;;;;;;;4.50;3.25;;;;;19.96;65.07;100842.50;5055046;28;45593;-70
2021/06/28 06:07:59;;;;;;;;;3.00;3.00;;;;;19.96;65.20;100848.66;5053563;28;45422;-69
2021/06/28 06:10:24;;;;;;;;;3.00;3.00;;;;;19.99;65.27;100847.63;5054933;28;46968;-71
2021/06/28 06:12:49;;;;;;;;;5.00;3.75;;;;;20.01;64.72;100848.38;5054062;28;45292;-69
2021/06/28 06:15:15;;;;;;;;;7.75;5.25;;;;;20.04;65.16;100861.50;5055625;28;45598;-69
2021/06/28 06:17:41;;;;;;;;;4.50;3.00;;;;;20.11;65.04;100879.63;5053766;28;45447;-69
2021/06/28 06:20:08;;;;;;;;;3.50;3.50;;;;;20.14;64.53;100884.81;5052561;28;46310;-68
2021/06/28 06:22:33;;;;;;;;;3.50;2.00;;;;;20.15;64.50;100880.34;5052609;28;45491;-69
2021/06/28 06:24:59;;;;;;;;;4.00;3.00;;;;;20.21;65.08;100892.41;5051904;28;45296;-70
2021/06/28 06:27:24;;;;;;;;;7.25;7.25;;;;;20.26;64.86;100900.97;5052931;28;45578;-68
2021/06/28 06:29:50;;;;;;;;;4.00;2.50;;;;;20.32;64.79;100904.13;5053210;28;45648;-68
2021/06/28 06:32:15;;;;;;;;;5.75;4.75;;;;;20.32;64.44;100914.75;5048858;28;45408;-69
2021/06/28 06:34:41;;;;;;;;;5.50;4.00;;;;;20.30;64.83;100923.78;5052389;28;45692;-68
2021/06/28 06:37:06;;;;;;;;;3.00;3.00;;;;;20.24;64.73;100937.44;5051877;28;45478;-68
2021/06/28 06:39:32;;;;;;;;;2.00;2.00;;;;;20.20;64.88;100928.75;5053594;28;45435;-70
2021/06/28 06:41:58;;;;;;;;;4.50;4.50;;;;;20.17;64.95;100917.47;5052850;28;45382;-69
2021/06/28 06:44:24;;;;;;;;;3.75;3.75;;;;;20.22;65.01;100923.38;5053467;28;45583;-68
2021/06/28 06:46:49;;;;;;;;;2.00;2.00;;;;;20.24;64.80;100925.00;5051863;28;46680;-69
2021/06/28 06:49:15;;;;;;;;;4.75;4.00;;;;;20.27;64.62;100918.63;5052364;28;46120;-69
2021/06/28 06:51:40;;;;;;;;;6.00;4.00;;;;;20.33;64.92;100915.59;5051264;28;45978;-69
2021/06/28 06:54:06;;;;;;;;;4.00;4.00;;;;;20.37;64.75;100922.47;5053018;28;45534;-69
2021/06/28 06:56:32;;;;;;;;;5.00;3.75;;;;;20.40;64.16;100922.28;5052318;28;45561;-69
2021/06/28 06:58:57;;;;;;;;;4.00;4.00;;;;;20.41;64.03;100926.66;5053249;28;46305;-69
2021/06/28 07:01:23;;;;;;;;;4.00;3.75;;;;;20.43;63.81;100929.25;5052319;28;45433;-70
2021/06/28 07:03:48;;;;;;;;;5.75;5.00;;;;;20.42;64.02;100931.03;5052999;28;45301;-70
2021/06/28 07:06:14;;;;;;;;;4.75;4.75;;;;;20.46;63.86;100929.91;5053611;28;45413;-67
2021/06/28 07:08:40;;;;;;;;;3.75;3.00;;;;;20.52;63.61;100920.72;5048274;28;45704;-68
2021/06/28 07:11:11;;;;;;;;;6.00;4.00;;;;;20.64;64.06;100933.34;5052413;28;45573;-69
2021/06/28 07:13:42;;;;;;;;;5.00;5.00;;;;;20.71;63.44;100936.47;5053552;28;45661;-67
2021/06/28 07:16:08;;;;;;;;;7.00;6.00;;;;;20.77;63.02;100918.34;5050771;28;45548;-70
2021/06/28 07:18:33;;;;;;;;;4.25;4.00;;;;;20.88;63.35;100916.81;5050260;28;45727;-70
2021/06/28 07:20:59;;;;;;;;;5.50;5.50;;;;;20.95;62.78;100929.69;5052870;28;45303;-70
2021/06/28 07:23:24;;;;;;;;;4.50;4.25;;;;;20.96;62.77;100925.22;5048362;28;45544;-69
2021/06/28 07:25:50;;;;;;;;;7.75;7.75;;;;;21.03;61.85;100925.72;5053448;28;45504;-68
2021/06/28 07:28:15;;;;;;;;;3.75;3.50;;;;;21.05;62.33;100934.47;5053071;28;46891;-69
2021/06/28 07:30:41;;;;;;;;;6.00;5.00;;;;;21.03;62.09;100931.88;5053389;28;45247;-70
2021/06/28 07:33:07;;;;;;;;;4.00;4.00;;;;;21.05;62.41;100935.31;5052764;28;45477;-71
2021/06/28 07:35:33;;;;;;;;;6.00;5.00;;;;;21.06;62.22;100939.66;5051751;28;45547;-71
2021/06/28 07:37:58;;;;;;;;;6.75;6.75;;;;;21.03;62.04;100934.53;5049688;28;46401;-70
2021/06/28 07:40:23;;;;;;;;;7.25;7.00;;;;;21.08;62.27;100940.44;5050289;28;45362;-68
2021/06/28 07:42:49;;;;;;;;;6.00;4.00;;;;;21.14;62.04;100944.53;5041080;28;45357;-69
2021/06/28 07:45:16;;;;;;;;;4.25;4.25;;;;;21.22;61.48;100944.91;5046085;28;45487;-70
2021/06/28 07:47:43;;;;;;;;;4.00;3.00;;;;;21.30;60.18;100939.13;5049887;28;46379;-70
2021/06/28 07:50:10;;;;;;;;;4.00;4.00;;;;;21.38;60.09;100940.38;5051717;28;45283;-69
2021/06/28 07:52:35;;;;;;;;;6.75;4.00;;;;;21.50;59.99;100948.53;5051863;28;45512;-68
2021/06/28 07:55:08;;;;;;;;;3.00;3.00;;;;;21.58;59.38;100951.59;5052847;28;45356;-69
2021/06/28 07:57:34;;;;;;;;;5.25;5.25;;;;;21.68;59.49;100963.38;5051178;28;45601;-69
2021/06/28 07:59:59;;;;;;;;;3.67;3.00;;;;;21.78;58.43;100955.66;5053211;28;45396;-69
2021/06/28 08:02:25;;;;;;;;;2.00;2.00;;;;;21.91;58.51;100951.25;5053513;28;45323;-70
2021/06/28 08:04:52;;;;;;;;;5.50;3.25;;;;;22.14;58.34;100946.25;5048360;28;45413;-70
2021/06/28 08:07:17;;;;;;;;;3.33;2.00;;;;;22.32;57.38;100946.88;5051026;28;47208;-70
2021/06/28 08:09:43;;;;;;;;;6.33;4.33;;;;;22.44;57.11;100946.91;5052601;28;45491;-70
2021/06/28 08:12:09;;;;;;;;;4.00;2.00;;;;;22.60;56.63;100952.09;5044831;28;45303;-69
2021/06/28 08:14:34;;;;;;;;;3.00;3.00;;;;;22.78;56.24;100949.97;5047865;28;45303;-69
2021/06/28 08:17:00;;;;;;;;;4.00;4.00;;;;;22.92;56.35;100951.69;5047435;28;45466;-69
2021/06/28 08:19:25;;;;;;;;;6.33;5.33;;;;;23.13;56.49;100949.41;5042329;28;45329;-70
2021/06/28 08:21:51;;;;;;;;;3.67;3.67;;;;;23.30;55.24;100958.91;5051724;28;45413;-69
2021/06/28 08:24:17;;;;;;;;;4.00;3.00;;;;;23.28;55.17;100942.97;5053276;28;45443;-70
2021/06/28 08:26:44;;;;;;;;;5.75;4.75;;;;;23.29;55.65;100947.38;5050764;28;46806;-69
2021/06/28 08:29:10;;;;;;;;;6.00;5.00;;;;;23.41;55.29;100942.13;5051680;28;45391;-69
2021/06/28 08:31:37;;;;;;;;;9.75;8.00;;;;;23.54;55.70;100950.97;5048116;28;45405;-70
2021/06/28 08:34:03;;;;;;;;;24.25;24.25;;;;;23.61;55.05;100943.38;5051166;28;45592;-70
2021/06/28 08:36:29;;;;;;;;;6.33;3.00;;;;;23.65;54.03;100937.69;5051894;28;46305;-70
2021/06/28 08:38:55;;;;;;;;;6.50;5.25;;;;;23.72;54.75;100941.63;5052178;28;45544;-71
2021/06/28 08:41:23;;;;;;;;;7.25;5.75;;;;;23.85;54.51;100938.94;5050210;28;45505;-67
2021/06/28 08:43:51;;;;;;;;;7.25;5.50;;;;;24.06;54.02;100941.03;5047838;28;45569;-68
2021/06/28 08:46:17;;;;;;;;;3.33;3.33;;;;;24.24;52.72;100945.03;5051649;28;45728;-69
2021/06/28 08:48:47;;;;;;;;;3.00;3.00;;;;;24.38;53.02;100949.31;5044610;28;45491;-69
2021/06/28 08:51:14;;;;;;;;;8.25;5.00;;;;;24.53;52.86;100945.53;5055624;28;45291;-69
2021/06/28 08:53:40;;;;;;;;;4.00;4.00;;;;;24.65;52.42;100956.28;5052165;28;45454;-69
2021/06/28 08:56:07;;;;;;;;;4.00;2.33;;;;;24.72;51.83;100949.50;5053454;28;46468;-69
2021/06/28 08:58:34;;;;;;;;;4.00;2.67;;;;;24.77;51.68;100950.84;5055295;28;45375;-69
2021/06/28 09:01:00;;;;;;;;;8.00;4.00;;;;;24.76;51.48;100950.94;5053227;28;45444;-69
2021/06/28 09:03:25;;;;;;;;;6.00;6.00;;;;;24.78;51.33;100949.00;5050440;28;45405;-69
2021/06/28 09:06:00;;;;;;;;;6.00;6.00;;;;;24.84;50.58;100951.22;5048953;28;45692;-69
2021/06/28 09:08:26;;;;;;;;;8.50;7.25;;;;;24.80;50.71;100939.88;5051972;28;45512;-70
2021/06/28 09:10:52;;;;;;;;;5.00;3.33;;;;;24.80;51.35;100936.34;5049065;28;45299;-70
2021/06/28 09:13:34;;;;;;;;;2.00;2.00;;;;;24.82;50.96;100946.97;5054307;28;45418;-69
2021/06/28 09:16:14;;;;;;;;;4.00;4.00;;;;;24.88;51.44;100947.31;5046816;28;45367;-69
2021/06/28 09:19:05;;;;;;;;;3.00;3.00;;;;;25.00;50.31;100940.16;5052314;28;45453;-69
2021/06/28 09:21:37;;;;;;;;;5.00;3.33;;;;;25.21;49.61;100951.91;5052490;28;45438;-69
2021/06/28 09:24:06;;;;;;;;;5.00;5.00;;;;;25.49;49.29;100941.69;5052705;28;45295;-70
2021/06/28 09:26:35;;;;;;;;;2.00;2.00;;;;;25.79;48.93;100946.44;5053477;28;46120;-69
2021/06/28 09:29:06;;;;;;;;;6.00;2.33;;;;;26.03;47.79;100954.31;5055165;28;46824;-70
2021/06/28 09:31:49;;;;;;;;;4.00;3.67;;;;;26.14;46.09;100945.38;5054716;28;45446;-69
2021/06/28 09:34:21;;;;;;;;;4.00;2.00;;;;;26.04;46.80;100961.38;5054474;27;45427;-69
2021/06/28 09:36:55;;;;;;;;;4.67;4.67;;;;;25.98;47.38;100961.91;5054526;28;47028;-70
2021/06/28 09:39:22;;;;;;;;;14.00;10.75;;;;;26.04;46.53;100955.19;5054592;28;45422;-70
2021/06/28 09:41:47;;;;;;;;;65.25;44.25;;;;;26.04;47.30;100958.69;5050412;28;45580;-69
2021/06/28 09:44:13;;;;;;;;;9.75;8.75;;;;;26.11;47.44;100964.44;5054363;28;45473;-70
2021/06/28 09:46:39;;;;;;;;;20.00;11.67;;;;;26.14;47.45;100963.31;5054185;28;46542;-71
2021/06/28 09:49:06;;;;;;;;;12.50;9.50;;;;;26.19;47.67;100967.31;5055149;28;45461;-70
2021/06/28 09:51:33;;;;;;;;;5.33;5.00;;;;;26.31;46.93;100969.97;5054548;28;45371;-71
2021/06/28 09:54:08;;;;;;;;;2.00;2.00;;;;;26.31;47.26;100969.97;5054765;28;45441;-70
2021/06/28 09:56:52;;;;;;;;;4.00;4.00;;;;;26.20;46.88;100969.03;5054311;28;46199;-69
2021/06/28 09:59:35;;;;;;;;;8.67;7.33;;;;;26.03;46.44;100977.63;5049684;28;45349;-71
2021/06/28 10:02:22;;;;;;;;;7.25;6.00;;;;;25.98;46.58;100979.81;5049348;28;45375;-71
2021/06/28 10:04:58;;;;;;;;;4.33;3.33;;;;;25.96;46.93;100988.00;5044145;28;46229;-70
2021/06/28 10:07:32;;;;;;;;;3.00;3.00;;;;;26.01;46.53;100984.94;5054192;28;47345;-71
2021/06/28 10:10:20;;;;;;;;;4.33;4.33;;;;;26.06;46.76;100982.72;5046282;28;45465;-70
2021/06/28 10:12:59;;;;;;;;;3.00;3.00;;;;;26.09;45.84;100985.16;5047066;28;45395;-70
2021/06/28 10:15:32;;;;;;;;;4.00;3.00;;;;;26.13;46.18;100986.63;5044825;28;45604;-70
2021/06/28 10:17:58;;;;;;;;;3.33;3.33;;;;;26.15;45.43;100984.66;5052408;28;46421;-70
2021/06/28 10:20:27;;;;;;;;;7.00;5.33;;;;;26.21;45.85;100983.28;5049431;28;45505;-69
2021/06/28 10:22:54;;;;;;;;;5.00;3.00;;;;;26.36;45.90;100979.38;5053486;28;45280;-71
2021/06/28 10:25:23;;;;;;;;;4.00;4.00;;;;;26.55;45.44;100981.38;5053191;28;45425;-69
2021/06/28 10:27:49;;;;;;;;;3.00;3.00;;;;;26.72;45.34;100988.03;5052150;28;46299;-69
2021/06/28 10:30:19;;;;;;;;;2.67;2.67;;;;;26.78;45.23;100989.34;5046094;28;45976;-69
2021/06/28 10:32:47;;;;;;;;;3.00;3.00;;;;;26.57;43.76;100979.41;5049776;28;45452;-69
2021/06/28 10:35:15;;;;;;;;;3.00;3.00;;;;;26.28;45.26;100987.19;5052118;28;45513;-69
2021/06/28 10:37:46;;;;;;;;;2.67;2.67;;;;;26.16;45.61;100991.72;5052017;28;46274;-69
2021/06/28 10:40:21;;;;;;;;;3.00;3.00;;;;;26.22;45.70;100983.19;5053452;28;45380;-70
2021/06/28 10:42:57;;;;;;;;;7.00;6.33;;;;;26.30;45.68;100982.53;5052570;28;45613;-69
2021/06/28 10:45:49;;;;;;;;;3.33;3.00;;;;;26.64;45.53;100971.69;5053716;28;45383;-69
2021/06/28 10:48:18;;;;;;;;;6.00;6.00;;;;;26.87;44.96;100970.59;5047725;28;47151;-72
2021/06/28 10:51:06;;;;;;;;;3.67;2.67;;;;;27.08;44.04;100970.59;5048394;28;46594;-68
2021/06/28 10:53:31;;;;;;;;;9.50;8.25;;;;;27.10;43.72;100962.38;5051816;28;45426;-72
2021/06/28 10:55:56;;;;;;;;;4.67;4.00;;;;;27.04;43.98;100966.47;5047342;28;45442;-72
2021/06/28 10:58:24;;;;;;;;;8.00;3.00;;;;;26.95;44.44;100969.09;5051935;28;46100;-70
2021/06/28 11:00:51;;;;;;;;;9.00;9.00;;;;;26.82;43.89;100967.47;5052830;28;45710;-68
2021/06/28 11:03:22;;;;;;;;;4.33;4.33;;;;;26.71;44.72;100967.50;5053177;28;45482;-69
2021/06/28 11:06:12;;;;;;;;;4.00;4.00;;;;;26.56;44.18;100958.06;5052448;28;45442;-68
2021/06/28 11:09:05;;;;;;;;;4.67;4.67;;;;;26.49;44.46;100955.03;5051802;28;47244;-68
2021/06/28 11:11:46;;;;;;;;;6.00;4.67;;;;;26.54;44.32;100955.50;5047931;28;45423;-69
2021/06/28 11:14:20;;;;;;;;;1.67;1.67;;;;;26.64;42.50;100952.91;5052230;28;45555;-69
2021/06/28 11:17:07;;;;;;;;;2.00;2.00;;;;;27.00;42.34;100956.94;5052459;28;45534;-69
2021/06/28 11:19:55;;;;;;;;;1.00;1.00;;;;;27.53;41.53;100958.69;5045333;28;46756;-68
2021/06/28 11:22:41;;;;;;;;;2.00;1.00;;;;;27.87;40.67;100945.78;5051714;28;45597;-70
2021/06/28 11:25:13;;;;;;;;;3.00;3.00;;;;;27.94;40.87;100946.94;5050895;28;45640;-71